createdAt,value
2019-04-11T00:00:28.375Z,50.95
2019-04-11T00:01:38.715Z,50.74
2019-04-11T00:02:29.335Z,51.26
2019-04-11T00:03:29.238Z,51.18
2019-04-11T00:04:28.325Z,51.90
2019-04-11T00:05:28.591Z,51.69
2019-04-11T00:06:28.312Z,52.00
2019-04-11T00:07:28.321Z,52.61
2019-04-11T00:08:28.274Z,52.61
2019-04-11T00:09:28.268Z,52.61
2019-04-11T00:10:29.143Z,52.92
2019-04-11T00:11:28.250Z,52.31
2019-04-11T00:12:28.458Z,53.03
2019-04-11T00:13:29.936Z,53.12
2019-04-11T00:14:28.207Z,53.33
2019-04-11T00:15:28.757Z,53.33
2019-04-11T00:16:28.920Z,53.66
2019-04-11T00:17:28.190Z,53.66
2019-04-11T00:18:28.170Z,53.66
2019-04-11T00:19:29.383Z,53.66
2019-04-11T00:20:28.455Z,53.56
2019-04-11T00:21:28.841Z,53.46
2019-04-11T00:22:28.125Z,53.77
2019-04-11T00:23:28.130Z,53.66
2019-04-11T00:24:29.186Z,53.66
2019-04-11T00:25:28.105Z,53.87
2019-04-11T00:26:28.549Z,52.84
2019-04-11T00:27:28.840Z,53.66
2019-04-11T00:28:28.063Z,53.66
2019-04-11T00:29:28.252Z,53.05
2019-04-11T00:30:28.265Z,53.66
2019-04-11T00:31:28.535Z,53.46
2019-04-11T00:32:28.017Z,53.25
2019-04-11T00:33:28.002Z,53.79
2019-04-11T00:34:28.940Z,53.89
2019-04-11T00:35:28.005Z,53.79
2019-04-11T00:36:28.446Z,53.69
2019-04-11T00:37:27.968Z,54.00
2019-04-11T00:38:27.956Z,53.79
2019-04-11T00:39:27.950Z,54.10
2019-04-11T00:40:28.974Z,54.72
2019-04-11T00:41:28.154Z,53.79
2019-04-11T00:42:28.349Z,53.59
2019-04-11T00:43:35.286Z,53.28
2019-04-11T00:44:28.894Z,53.38
2019-04-11T00:45:27.875Z,53.17
2019-04-11T00:46:28.696Z,52.79
2019-04-11T00:47:28.980Z,53.10
2019-04-11T00:48:28.027Z,53.72
2019-04-11T00:49:27.833Z,53.51
2019-04-11T00:50:29.099Z,53.20
2019-04-11T00:51:27.820Z,53.30
2019-04-11T00:52:27.819Z,53.61
2019-04-11T00:53:27.853Z,53.61
2019-04-11T00:54:28.891Z,53.41
2019-04-11T00:55:27.773Z,53.72
2019-04-11T00:56:28.383Z,53.81
2019-04-11T00:57:28.574Z,53.43
2019-04-11T00:58:27.806Z,53.53
2019-04-11T00:59:27.723Z,53.53
2019-04-11T01:00:27.735Z,53.94
2019-04-11T01:01:28.150Z,53.85
2019-04-11T01:02:27.716Z,53.64
2019-04-11T01:03:28.401Z,53.85
2019-04-11T01:04:27.700Z,54.15
2019-04-11T01:05:27.681Z,54.25
2019-04-11T01:06:27.980Z,54.87
2019-04-11T01:07:27.645Z,54.90
2019-04-11T01:08:27.634Z,55.51
2019-04-11T01:09:28.458Z,54.79
2019-04-11T01:10:27.611Z,54.97
2019-04-11T01:11:27.874Z,54.90
2019-04-11T01:12:27.589Z,55.10
2019-04-11T01:13:39.129Z,55.62
2019-04-11T01:14:28.572Z,55.93
2019-04-11T01:15:27.556Z,55.62
2019-04-11T01:16:28.405Z,55.93
2019-04-11T01:17:27.561Z,56.23
2019-04-11T01:18:27.771Z,55.72
2019-04-11T01:19:27.532Z,56.02
2019-04-11T01:20:27.510Z,55.93
2019-04-11T01:21:28.531Z,56.74
2019-04-11T01:22:27.492Z,56.44
2019-04-11T01:23:27.470Z,56.54
2019-04-11T01:24:28.123Z,56.36
2019-04-11T01:25:28.411Z,57.18
2019-04-11T01:26:28.239Z,57.18
2019-04-11T01:27:27.421Z,57.29
2019-04-11T01:28:27.433Z,56.98
2019-04-11T01:29:27.402Z,57.70
2019-04-11T01:30:27.393Z,56.98
2019-04-11T01:31:27.398Z,56.98
2019-04-11T01:32:28.430Z,57.42
2019-04-11T01:33:27.524Z,57.52
2019-04-11T01:34:27.366Z,57.39
2019-04-11T01:35:27.336Z,57.82
2019-04-11T01:36:27.338Z,57.62
2019-04-11T01:37:28.057Z,57.52
2019-04-11T01:38:28.272Z,57.42
2019-04-11T01:39:27.971Z,57.82
2019-04-11T01:40:27.284Z,57.42
2019-04-11T01:41:27.285Z,58.03
2019-04-11T01:42:27.282Z,58.03
2019-04-11T01:43:28.131Z,58.16
2019-04-11T01:44:28.318Z,57.96
2019-04-11T01:45:27.574Z,58.40
2019-04-11T01:46:27.232Z,58.06
2019-04-11T01:47:27.234Z,58.58
2019-04-11T01:48:27.895Z,57.96
2019-04-11T01:49:28.222Z,57.54
2019-04-11T01:50:27.205Z,58.06
2019-04-11T01:51:27.165Z,57.54
2019-04-11T01:52:27.173Z,57.54
2019-04-11T01:53:27.147Z,57.54
2019-04-11T01:54:28.088Z,57.24
2019-04-11T01:55:28.189Z,57.57
2019-04-11T01:56:27.340Z,57.98
2019-04-11T01:57:27.633Z,57.26
2019-04-11T01:58:27.112Z,57.78
2019-04-11T01:59:27.156Z,57.57
2019-04-11T02:00:28.055Z,57.88
2019-04-11T02:01:27.063Z,57.37
2019-04-11T02:02:27.073Z,57.26
2019-04-11T02:03:27.465Z,57.47
2019-04-11T02:04:27.912Z,57.47
2019-04-11T02:05:27.240Z,57.57
2019-04-11T02:06:27.054Z,57.47
2019-04-11T02:07:27.011Z,58.11
2019-04-11T02:08:27.194Z,58.29
2019-04-11T02:09:28.292Z,58.22
2019-04-11T02:10:26.965Z,58.22
2019-04-11T02:11:27.704Z,58.60
2019-04-11T02:12:26.960Z,58.01
2019-04-11T02:13:27.945Z,58.01
2019-04-11T02:14:27.950Z,58.94
2019-04-11T02:15:26.925Z,58.01
2019-04-11T02:16:27.258Z,59.04
2019-04-11T02:17:26.905Z,59.17
2019-04-11T02:18:27.656Z,59.04
2019-04-11T02:19:28.013Z,59.58
2019-04-11T02:20:27.180Z,59.69
2019-04-11T02:21:27.475Z,58.97
2019-04-11T02:22:26.856Z,59.28
2019-04-11T02:23:26.834Z,60.10
2019-04-11T02:24:27.927Z,60.31
2019-04-11T02:25:26.807Z,60.13
2019-04-11T02:26:27.270Z,60.02
2019-04-11T02:27:27.432Z,59.61
2019-04-11T02:28:26.775Z,59.72
2019-04-11T02:29:27.695Z,60.33
2019-04-11T02:30:27.903Z,61.05
2019-04-11T02:31:28.139Z,60.13
2019-04-11T02:32:29.044Z,60.85
2019-04-11T02:33:27.060Z,61.05
2019-04-11T02:34:27.743Z,60.13
2019-04-11T02:35:26.901Z,60.13
2019-04-11T02:36:27.348Z,60.85
2019-04-11T02:37:26.689Z,60.57
2019-04-11T02:38:28.303Z,60.85
2019-04-11T02:39:28.986Z,61.08
2019-04-11T02:40:27.762Z,61.16
2019-04-11T02:41:27.521Z,60.77
2019-04-11T02:42:27.661Z,60.77
2019-04-11T02:43:26.640Z,60.88
2019-04-11T02:44:36.659Z,60.77
2019-04-11T02:45:43.304Z,61.40
2019-04-11T02:46:35.509Z,60.88
2019-04-11T02:47:31.930Z,60.98
2019-04-11T02:48:28.823Z,61.60
2019-04-11T02:49:27.831Z,61.40
2019-04-11T02:50:26.775Z,60.57
2019-04-11T02:51:27.030Z,59.74
2019-04-11T02:52:27.666Z,59.84
2019-04-11T02:53:28.165Z,60.88
2019-04-11T02:54:26.973Z,61.60
2019-04-11T02:55:27.733Z,61.70
2019-04-11T02:56:27.738Z,61.94
2019-04-11T02:57:26.633Z,60.98
2019-04-11T02:58:27.819Z,60.67
2019-04-11T02:59:27.416Z,61.73
2019-04-11T03:00:27.177Z,61.32
2019-04-11T03:01:28.270Z,60.80
2019-04-11T03:02:26.803Z,60.70
2019-04-11T03:03:27.379Z,61.42
2019-04-11T03:04:26.956Z,61.73
2019-04-11T03:05:26.911Z,60.91
2019-04-11T03:06:27.928Z,61.32
2019-04-11T03:07:26.531Z,60.73
2019-04-11T03:08:28.183Z,60.83
2019-04-11T03:09:26.912Z,61.52
2019-04-11T03:10:27.112Z,61.24
2019-04-11T03:11:27.566Z,61.76
2019-04-11T03:12:27.579Z,61.66
2019-04-11T03:13:27.253Z,61.97
2019-04-11T03:14:27.775Z,61.55
2019-04-11T03:15:43.197Z,62.17
2019-04-11T03:16:40.629Z,62.48
2019-04-11T03:17:33.386Z,62.27
2019-04-11T03:18:49.451Z,61.87
2019-04-11T03:19:42.588Z,62.38
2019-04-11T03:20:34.502Z,62.38
2019-04-11T03:21:30.859Z,62.41
2019-04-11T03:22:27.227Z,62.82
2019-04-11T03:23:27.847Z,62.72
2019-04-11T03:24:28.352Z,62.27
2019-04-11T03:25:28.022Z,62.41
2019-04-11T03:26:27.041Z,62.62
2019-04-11T03:27:28.678Z,62.82
2019-04-11T03:28:30.485Z,63.03
2019-04-11T03:29:28.610Z,62.93
2019-04-11T03:30:42.388Z,63.54
2019-04-11T03:32:05.050Z,63.13
2019-04-11T03:37:54.706Z,63.78
2019-04-11T03:38:46.599Z,63.26
2019-04-11T03:39:44.183Z,63.75
2019-04-11T03:40:47.056Z,63.68
2019-04-11T03:42:40.993Z,63.37
2019-04-11T03:43:40.519Z,63.89
2019-04-11T03:44:33.977Z,64.40
2019-04-11T03:45:49.629Z,64.20
2019-04-11T03:46:46.606Z,64.20
2019-04-11T03:47:37.486Z,65.26
2019-04-11T03:48:40.171Z,64.32
2019-04-11T03:49:34.300Z,65.36
2019-04-11T03:50:30.521Z,65.85
2019-04-11T03:51:27.755Z,65.75
2019-04-11T03:52:26.047Z,65.75
2019-04-11T03:53:29.516Z,64.74
2019-04-11T03:54:25.916Z,65.33
2019-04-11T03:55:27.881Z,65.16
2019-04-11T03:56:26.688Z,65.99
2019-04-11T03:57:25.834Z,66.47
2019-04-11T03:58:25.974Z,65.88
2019-04-11T03:59:27.027Z,66.09
2019-04-11T04:00:31.332Z,66.60
2019-04-11T04:01:26.981Z,66.63
2019-04-11T04:02:25.987Z,66.60
2019-04-11T04:03:26.870Z,67.05
2019-04-11T04:04:26.802Z,66.81
2019-04-11T04:05:26.362Z,66.12
2019-04-11T04:06:25.805Z,67.43
2019-04-11T04:07:25.727Z,67.77
2019-04-11T04:08:27.094Z,66.94
2019-04-11T04:09:26.864Z,66.53
2019-04-11T04:10:25.991Z,66.32
2019-04-11T04:11:27.672Z,67.36
2019-04-11T04:12:27.293Z,65.91
2019-04-11T04:13:28.256Z,66.84
2019-04-11T04:14:26.326Z,66.63
2019-04-11T04:15:47.476Z,66.63
2019-04-11T04:16:35.904Z,66.84
2019-04-11T04:17:27.877Z,66.74
2019-04-11T04:18:25.625Z,66.74
2019-04-11T04:19:27.069Z,66.74
2019-04-11T04:20:26.905Z,66.53
2019-04-11T04:21:26.551Z,66.74
2019-04-11T04:22:27.103Z,66.22
2019-04-11T04:23:27.207Z,66.32
2019-04-11T04:24:27.760Z,66.66
2019-04-11T04:25:26.211Z,66.87
2019-04-11T04:26:26.844Z,66.87
2019-04-11T04:27:27.928Z,66.84
2019-04-11T04:28:27.125Z,66.66
2019-04-11T04:29:27.527Z,66.35
2019-04-11T04:30:27.670Z,66.77
2019-04-11T04:31:26.705Z,66.56
2019-04-11T04:32:25.479Z,65.94
2019-04-11T04:33:26.569Z,65.73
2019-04-11T04:34:26.023Z,65.63
2019-04-11T04:35:26.220Z,66.66
2019-04-11T04:36:27.300Z,65.94
2019-04-11T04:37:26.688Z,65.94
2019-04-11T04:38:25.419Z,66.05
2019-04-11T04:39:27.104Z,65.73
2019-04-11T04:40:42.427Z,65.84
2019-04-11T04:41:36.666Z,66.08
2019-04-11T04:42:32.254Z,66.66
2019-04-11T04:43:27.435Z,66.49
2019-04-11T04:44:26.506Z,66.49
2019-04-11T04:45:25.346Z,66.72
2019-04-11T04:46:38.222Z,66.69
2019-04-11T04:47:37.140Z,66.18
2019-04-11T04:48:27.168Z,66.49
2019-04-11T04:49:25.315Z,66.38
2019-04-11T04:50:26.708Z,66.28
2019-04-11T04:51:26.785Z,66.08
2019-04-11T04:52:27.247Z,66.49
2019-04-11T04:53:26.499Z,66.69
2019-04-11T04:54:25.269Z,66.90
2019-04-11T04:55:25.978Z,66.49
2019-04-11T04:56:29.495Z,66.52
2019-04-11T04:57:26.761Z,66.80
2019-04-11T04:58:26.516Z,66.72
2019-04-11T04:59:25.261Z,66.59
2019-04-11T05:00:25.995Z,66.52
2019-04-11T05:01:26.584Z,66.72
2019-04-11T05:02:26.042Z,66.52
2019-04-11T05:03:26.727Z,66.69
2019-04-11T05:04:25.140Z,66.83
2019-04-11T05:05:26.623Z,66.62
2019-04-11T05:06:26.188Z,66.72
2019-04-11T05:07:27.531Z,66.83
2019-04-11T05:08:25.152Z,66.69
2019-04-11T05:09:25.564Z,66.90
2019-04-11T05:10:26.382Z,67.00
2019-04-11T05:11:26.245Z,66.28
2019-04-11T05:12:26.173Z,66.28
2019-04-11T05:13:25.042Z,66.28
2019-04-11T05:14:25.412Z,66.59
2019-04-11T05:15:26.165Z,66.80
2019-04-11T05:16:25.072Z,66.28
2019-04-11T05:17:26.281Z,66.08
2019-04-11T05:18:25.929Z,66.83
2019-04-11T05:19:25.554Z,66.72
2019-04-11T05:20:24.975Z,67.03
2019-04-11T05:21:25.411Z,66.52
2019-04-11T05:22:24.944Z,66.93
2019-04-11T05:23:25.506Z,66.62
2019-04-11T05:24:24.918Z,66.72
2019-04-11T05:25:24.921Z,66.62
2019-04-11T05:26:25.666Z,66.72
2019-04-11T05:27:25.159Z,66.93
2019-04-11T05:28:25.483Z,67.03
2019-04-11T05:29:25.048Z,67.35
2019-04-11T05:30:25.262Z,66.62
2019-04-11T05:31:24.901Z,66.62
2019-04-11T05:32:27.156Z,66.72
2019-04-11T05:33:25.328Z,67.45
2019-04-11T05:34:25.828Z,66.11
2019-04-11T05:35:24.959Z,67.35
2019-04-11T05:36:24.841Z,66.72
2019-04-11T05:37:24.965Z,67.03
2019-04-11T05:38:25.246Z,66.83
2019-04-11T05:39:25.528Z,66.21
2019-04-11T05:40:25.905Z,66.41
2019-04-11T05:41:26.070Z,66.62
2019-04-11T05:42:26.974Z,66.62
2019-04-11T05:43:30.066Z,66.21
2019-04-11T05:44:25.700Z,66.41
2019-04-11T05:45:26.050Z,66.21
2019-04-11T05:46:33.461Z,66.52
2019-04-11T05:47:25.695Z,66.08
2019-04-11T05:48:25.963Z,66.08
2019-04-11T05:49:24.649Z,66.11
2019-04-11T05:50:24.656Z,66.69
2019-04-11T05:51:25.266Z,65.97
2019-04-11T05:52:27.407Z,66.18
2019-04-11T05:53:25.625Z,65.87
2019-04-11T05:54:24.611Z,66.08
2019-04-11T05:55:25.847Z,65.87
2019-04-11T05:56:25.621Z,65.97
2019-04-11T05:57:31.316Z,65.87
2019-04-11T05:58:26.200Z,65.77
2019-04-11T05:59:25.581Z,66.08
2019-04-11T06:00:24.551Z,65.97
2019-04-11T06:01:24.551Z,64.42
2019-04-11T06:02:24.939Z,65.14
2019-04-11T06:03:24.519Z,65.53
2019-04-11T06:04:27.235Z,65.45
2019-04-11T06:05:30.937Z,65.45
2019-04-11T06:06:26.723Z,65.25
2019-04-11T06:07:25.158Z,65.25
2019-04-11T06:08:28.480Z,64.73
2019-04-11T06:09:30.251Z,64.28
2019-04-11T06:10:26.133Z,64.49
2019-04-11T06:11:24.498Z,64.18
2019-04-11T06:12:25.426Z,64.07
2019-04-11T06:13:24.681Z,64.07
2019-04-11T06:14:25.035Z,64.59
2019-04-11T06:15:25.026Z,64.28
2019-04-11T06:16:35.877Z,64.80
2019-04-11T06:17:25.970Z,64.39
2019-04-11T06:18:31.274Z,63.87
2019-04-11T06:19:25.333Z,63.87
2019-04-11T06:20:25.272Z,63.87
2019-04-11T06:21:24.443Z,64.39
2019-04-11T06:22:25.519Z,64.18
2019-04-11T06:23:25.410Z,64.39
2019-04-11T06:24:24.278Z,64.18
2019-04-11T06:25:25.784Z,63.95
2019-04-11T06:26:24.802Z,62.91
2019-04-11T06:27:24.274Z,63.32
2019-04-11T06:28:24.391Z,62.81
2019-04-11T06:29:26.431Z,63.12
2019-04-11T06:30:24.315Z,62.60
2019-04-11T06:31:24.838Z,62.49
2019-04-11T06:32:24.194Z,62.57
2019-04-11T06:33:24.724Z,62.88
2019-04-11T06:34:26.520Z,62.37
2019-04-11T06:35:24.175Z,62.46
2019-04-11T06:36:26.496Z,61.64
2019-04-11T06:37:24.142Z,61.95
2019-04-11T06:38:24.705Z,62.26
2019-04-11T06:39:24.122Z,62.05
2019-04-11T06:40:24.877Z,62.05
2019-04-11T06:41:24.420Z,62.05
2019-04-11T06:42:26.782Z,62.23
2019-04-11T06:43:24.087Z,61.92
2019-04-11T06:44:24.100Z,61.74
2019-04-11T06:45:24.058Z,61.85
2019-04-11T06:46:25.064Z,61.82
2019-04-11T06:47:24.970Z,62.34
2019-04-11T06:48:25.171Z,61.85
2019-04-11T06:49:24.677Z,61.61
2019-04-11T06:50:25.093Z,61.71
2019-04-11T06:51:24.061Z,60.89
2019-04-11T06:52:24.422Z,61.92
2019-04-11T06:53:23.971Z,61.51
2019-04-11T06:54:25.145Z,59.95
2019-04-11T06:55:23.963Z,61.40
2019-04-11T06:56:25.254Z,61.71
2019-04-11T06:57:23.929Z,61.38
2019-04-11T06:58:23.937Z,60.96
2019-04-11T06:59:24.019Z,61.48
2019-04-11T07:00:25.123Z,61.58
2019-04-11T07:01:23.902Z,60.75
2019-04-11T07:02:25.041Z,60.14
2019-04-11T07:03:26.292Z,60.03
2019-04-11T07:04:25.325Z,60.44
2019-04-11T07:05:24.716Z,60.42
2019-04-11T07:06:23.939Z,60.21
2019-04-11T07:07:27.283Z,60.93
2019-04-11T07:08:24.818Z,60.63
2019-04-11T07:09:24.431Z,60.21
2019-04-11T07:10:24.577Z,60.11
2019-04-11T07:11:23.794Z,59.90
2019-04-11T07:12:24.427Z,60.11
2019-04-11T07:13:24.820Z,60.11
2019-04-11T07:14:23.755Z,60.31
2019-04-11T07:15:23.741Z,59.90
2019-04-11T07:16:23.741Z,60.21
2019-04-11T07:17:23.741Z,59.49
2019-04-11T07:18:24.791Z,59.98
2019-04-11T07:19:23.705Z,59.18
2019-04-11T07:20:24.934Z,59.18
2019-04-11T07:21:23.687Z,59.05
2019-04-11T07:22:23.684Z,59.67
2019-04-11T07:23:24.340Z,59.77
2019-04-11T07:24:24.727Z,60.08
2019-04-11T07:25:23.647Z,59.98
2019-04-11T07:26:23.631Z,59.67
2019-04-11T07:27:23.836Z,58.12
2019-04-11T07:28:23.645Z,58.53
2019-04-11T07:29:23.981Z,58.94
2019-04-11T07:30:25.180Z,59.88
2019-04-11T07:31:23.578Z,60.26
2019-04-11T07:32:23.587Z,59.12
2019-04-11T07:33:24.525Z,58.09
2019-04-11T07:34:24.221Z,58.30
2019-04-11T07:35:24.899Z,58.20
2019-04-11T07:36:23.515Z,58.20
2019-04-11T07:37:23.694Z,58.06
2019-04-11T07:38:23.513Z,58.81
2019-04-11T07:39:24.626Z,58.27
2019-04-11T07:40:24.181Z,59.09
2019-04-11T07:41:23.968Z,58.37
2019-04-11T07:42:23.907Z,58.37
2019-04-11T07:43:24.752Z,58.37
2019-04-11T07:44:23.925Z,58.27
2019-04-11T07:45:23.443Z,58.06
2019-04-11T07:46:25.019Z,58.17
2019-04-11T07:47:26.311Z,58.06
2019-04-11T07:48:23.391Z,58.27
2019-04-11T07:49:24.452Z,58.99
2019-04-11T07:50:24.936Z,58.86
2019-04-11T07:51:23.424Z,58.14
2019-04-11T07:52:23.352Z,58.14
2019-04-11T07:53:24.021Z,58.14
2019-04-11T07:54:23.332Z,57.60
2019-04-11T07:55:23.469Z,58.01
2019-04-11T07:56:23.303Z,57.29
2019-04-11T07:57:23.296Z,57.60
2019-04-11T07:58:23.934Z,57.39
2019-04-11T07:59:23.278Z,57.81
2019-04-11T08:00:37.936Z,57.50
2019-04-11T08:01:24.915Z,58.22
2019-04-11T08:02:24.364Z,58.22
2019-04-11T08:03:23.524Z,58.01
2019-04-11T08:04:23.970Z,58.01
2019-04-11T08:05:23.588Z,58.32
2019-04-11T08:06:24.288Z,58.29
2019-04-11T08:07:24.367Z,57.88
2019-04-11T08:08:23.310Z,58.09
2019-04-11T08:09:24.405Z,57.68
2019-04-11T08:10:23.155Z,57.06
2019-04-11T08:11:23.437Z,57.26
2019-04-11T08:12:23.563Z,56.65
2019-04-11T08:13:23.148Z,57.06
2019-04-11T08:14:23.121Z,55.62
2019-04-11T08:15:23.769Z,55.82
2019-04-11T08:16:23.093Z,54.66
2019-04-11T08:17:32.064Z,55.07
2019-04-11T08:18:24.419Z,54.97
2019-04-11T08:19:23.063Z,55.38
2019-04-11T08:20:23.495Z,55.38
2019-04-11T08:21:23.042Z,55.18
2019-04-11T08:22:23.182Z,55.38
2019-04-11T08:23:23.462Z,55.38
2019-04-11T08:24:25.777Z,55.66
2019-04-11T08:25:23.115Z,55.77
2019-04-11T08:26:24.098Z,55.46
2019-04-11T08:27:23.259Z,55.87
2019-04-11T08:28:22.979Z,54.64
2019-04-11T08:29:24.217Z,54.33
2019-04-11T08:30:22.943Z,54.41
2019-04-11T08:31:22.949Z,55.23
2019-04-11T08:32:22.929Z,54.20
2019-04-11T08:33:22.923Z,54.20
2019-04-11T08:34:23.662Z,53.79
2019-04-11T08:35:23.983Z,53.77
2019-04-11T08:36:23.944Z,54.28
2019-04-11T08:37:23.314Z,54.17
2019-04-11T08:38:22.864Z,54.79
2019-04-11T08:39:22.934Z,54.38
2019-04-11T08:40:23.870Z,54.79
2019-04-11T08:41:23.186Z,54.28
2019-04-11T08:42:23.401Z,54.07
2019-04-11T08:43:23.371Z,53.77
2019-04-11T08:44:23.813Z,53.85
2019-04-11T08:45:23.713Z,53.64
2019-04-11T08:46:22.772Z,52.28
2019-04-11T08:47:22.797Z,52.40
2019-04-11T08:48:22.755Z,52.38
2019-04-11T08:49:23.749Z,52.48
2019-04-11T08:50:22.815Z,52.38
2019-04-11T08:51:23.198Z,53.17
2019-04-11T08:52:22.709Z,53.49
2019-04-11T08:53:22.700Z,53.59
2019-04-11T08:54:23.715Z,52.87
2019-04-11T08:55:23.092Z,52.76
2019-04-11T08:56:23.088Z,52.64
2019-04-11T08:57:23.428Z,53.05
2019-04-11T08:58:22.716Z,51.72
2019-04-11T08:59:22.647Z,51.79
2019-04-11T09:00:22.625Z,52.00
2019-04-11T09:01:22.618Z,52.10
2019-04-11T09:02:22.616Z,51.90
2019-04-11T09:03:23.804Z,52.00
2019-04-11T09:04:23.894Z,51.67
2019-04-11T09:05:22.822Z,50.23
2019-04-11T09:06:22.942Z,51.26
2019-04-11T09:07:22.549Z,50.95
2019-04-11T09:08:23.785Z,51.15
2019-04-11T09:09:23.150Z,50.44
2019-04-11T09:10:22.514Z,50.54
2019-04-11T09:11:22.638Z,49.90
2019-04-11T09:12:22.595Z,49.80
2019-04-11T09:13:22.969Z,50.01
2019-04-11T09:14:22.513Z,50.42
2019-04-11T09:15:22.467Z,50.72
2019-04-11T09:16:23.619Z,50.31
2019-04-11T09:17:23.355Z,50.52
2019-04-11T09:18:22.429Z,50.21
2019-04-11T09:19:23.023Z,49.37
2019-04-11T09:20:23.371Z,49.16
2019-04-11T09:21:22.414Z,49.16
2019-04-11T09:22:22.633Z,49.98
2019-04-11T09:23:22.378Z,50.29
2019-04-11T09:24:22.388Z,50.70
2019-04-11T09:25:23.292Z,50.09
2019-04-11T09:26:23.341Z,50.47
2019-04-11T09:27:22.649Z,50.16
2019-04-11T09:28:22.333Z,51.18
2019-04-11T09:29:22.323Z,49.96
2019-04-11T09:30:23.050Z,49.44
2019-04-11T09:31:22.296Z,49.75
2019-04-11T09:32:22.288Z,49.44
2019-04-11T09:33:22.705Z,49.67
2019-04-11T09:34:22.277Z,49.16
2019-04-11T09:35:22.266Z,48.73
2019-04-11T09:36:22.236Z,49.98
2019-04-11T09:37:22.239Z,49.44
2019-04-11T09:38:22.266Z,49.04
2019-04-11T09:39:23.257Z,48.52
2019-04-11T09:40:22.222Z,49.75
2019-04-11T09:41:22.687Z,49.96
2019-04-11T09:42:23.006Z,48.65
2019-04-11T09:43:22.317Z,48.63
2019-04-11T09:44:22.506Z,48.93
2019-04-11T09:45:22.147Z,48.73
2019-04-11T09:46:22.171Z,49.42
2019-04-11T09:47:22.226Z,48.93
2019-04-11T09:48:23.377Z,48.81
2019-04-11T09:49:22.735Z,49.42
2019-04-11T09:50:22.421Z,49.11
2019-04-11T09:51:23.364Z,48.89
2019-04-11T09:52:22.730Z,49.81
2019-04-11T09:53:22.720Z,48.89
2019-04-11T09:54:22.044Z,48.79
2019-04-11T09:55:22.041Z,48.99
2019-04-11T09:56:22.826Z,49.17
2019-04-11T09:57:22.835Z,48.46
2019-04-11T09:58:23.075Z,49.17
2019-04-11T09:59:22.997Z,48.94
2019-04-11T10:00:22.897Z,47.92
2019-04-11T10:01:21.967Z,47.52
2019-04-11T10:02:23.252Z,46.90
2019-04-11T10:03:23.363Z,47.92
2019-04-11T10:04:21.940Z,47.31
2019-04-11T10:05:22.351Z,47.82
2019-04-11T10:06:21.915Z,47.52
2019-04-11T10:07:21.906Z,47.72
2019-04-11T10:08:22.479Z,47.29
2019-04-11T10:09:22.019Z,47.90
2019-04-11T10:10:21.886Z,47.90
2019-04-11T10:11:22.002Z,47.29
2019-04-11T10:12:22.122Z,47.19
2019-04-11T10:13:21.849Z,47.49
2019-04-11T10:14:21.830Z,46.34
2019-04-11T10:15:23.148Z,46.66
2019-04-11T10:16:22.075Z,47.06
2019-04-11T10:17:24.280Z,47.88
2019-04-11T10:18:26.016Z,47.96
2019-04-11T10:19:24.204Z,46.73
2019-04-11T10:20:21.779Z,46.02
2019-04-11T10:21:23.029Z,46.10
2019-04-11T10:22:22.730Z,44.87
2019-04-11T10:23:22.809Z,45.79
2019-04-11T10:24:22.464Z,46.10
2019-04-11T10:25:21.721Z,45.28
2019-04-11T10:26:21.720Z,45.79
2019-04-11T10:27:22.586Z,45.89
2019-04-11T10:28:21.837Z,46.10
2019-04-11T10:29:21.677Z,45.36
2019-04-11T10:30:22.917Z,46.08
2019-04-11T10:31:22.322Z,45.98
2019-04-11T10:32:21.641Z,46.18
2019-04-11T10:33:22.598Z,45.85
2019-04-11T10:34:21.704Z,46.87
2019-04-11T10:35:22.048Z,44.61
2019-04-11T10:36:21.617Z,44.20
2019-04-11T10:37:21.584Z,44.61
2019-04-11T10:38:22.496Z,43.90
2019-04-11T10:39:21.654Z,43.38
2019-04-11T10:40:21.706Z,44.51
2019-04-11T10:41:21.545Z,44.08
2019-04-11T10:42:22.179Z,44.59
2019-04-11T10:43:22.453Z,43.85
2019-04-11T10:44:21.508Z,43.35
2019-04-11T10:45:22.585Z,42.53
2019-04-11T10:46:21.494Z,42.13
2019-04-11T10:47:21.474Z,42.22
2019-04-11T10:48:33.046Z,42.43
2019-04-11T10:49:22.452Z,41.72
2019-04-11T10:50:21.797Z,41.41
2019-04-11T10:51:22.544Z,41.52
2019-04-11T10:52:22.523Z,44.06
2019-04-11T10:53:21.410Z,44.57
2019-04-11T10:54:21.857Z,43.75
2019-04-11T10:55:21.876Z,44.24
2019-04-11T10:56:22.247Z,43.30
2019-04-11T10:57:22.439Z,44.02
2019-04-11T10:58:21.583Z,43.10
2019-04-11T10:59:21.616Z,41.76
2019-04-11T11:00:21.335Z,41.86
2019-04-11T11:01:21.954Z,41.54
2019-04-11T11:02:21.311Z,41.64
2019-04-11T11:03:22.235Z,41.13
2019-04-11T11:04:21.295Z,42.23
2019-04-11T11:05:22.168Z,42.23
2019-04-11T11:06:21.860Z,41.21
2019-04-11T11:07:21.346Z,40.08
2019-04-11T11:08:21.585Z,40.28
2019-04-11T11:09:21.866Z,41.68
2019-04-11T11:10:21.651Z,41.17
2019-04-11T11:11:21.979Z,40.47
2019-04-11T11:12:21.205Z,40.14
2019-04-11T11:13:21.642Z,40.24
2019-04-11T11:14:21.187Z,40.63
2019-04-11T11:15:21.178Z,39.19
2019-04-11T11:16:22.091Z,39.09
2019-04-11T11:17:43.510Z,38.46
2019-04-11T11:19:40.393Z,38.77
2019-04-11T11:20:28.486Z,38.45
2019-04-11T11:21:25.968Z,38.57
2019-04-11T11:22:23.762Z,38.45
2019-04-11T11:23:21.085Z,38.35
2019-04-11T11:24:21.859Z,38.45
2019-04-11T11:25:21.091Z,38.26
2019-04-11T11:26:22.877Z,37.84
2019-04-11T11:27:22.255Z,36.93
2019-04-11T11:28:21.490Z,38.14
2019-04-11T11:29:21.065Z,38.55
2019-04-11T11:30:21.009Z,38.35
2019-04-11T11:31:22.294Z,37.94
2019-04-11T11:32:21.169Z,37.74
2019-04-11T11:33:22.216Z,38.02
2019-04-11T11:34:21.988Z,36.00
2019-04-11T11:35:25.278Z,36.72
2019-04-11T11:36:21.945Z,38.14
2019-04-11T11:37:20.948Z,37.84
2019-04-11T11:38:21.946Z,37.74
2019-04-11T11:39:20.931Z,37.84
2019-04-11T11:40:21.844Z,37.50
2019-04-11T11:41:20.893Z,38.82
2019-04-11T11:42:22.034Z,36.76
2019-04-11T11:43:21.166Z,37.35
2019-04-11T11:44:20.860Z,36.12
2019-04-11T11:45:21.502Z,35.31
2019-04-11T11:46:25.491Z,34.59
2019-04-11T11:47:21.838Z,35.90
2019-04-11T11:48:22.339Z,36.00
2019-04-11T11:49:37.507Z,33.97
2019-04-11T11:50:23.681Z,34.88
2019-04-11T11:51:23.888Z,34.47
2019-04-11T11:52:22.799Z,34.39
2019-04-11T11:53:20.762Z,33.48
2019-04-11T11:54:21.909Z,33.67
2019-04-11T11:55:21.837Z,34.17
2019-04-11T11:56:20.730Z,34.05
2019-04-11T11:57:20.723Z,34.16
2019-04-11T11:58:21.604Z,33.73
2019-04-11T11:59:20.700Z,34.54
2019-04-11T12:00:21.122Z,33.84
2019-04-11T12:01:21.853Z,33.53
2019-04-11T12:02:22.383Z,32.91
2019-04-11T12:03:23.426Z,33.11
2019-04-11T12:04:24.045Z,31.81
2019-04-11T12:05:20.657Z,33.20
2019-04-11T12:06:22.279Z,32.70
2019-04-11T12:07:21.068Z,33.60
2019-04-11T12:08:20.600Z,32.90
2019-04-11T12:09:20.588Z,32.50
2019-04-11T12:10:22.497Z,32.58
2019-04-11T12:11:20.568Z,32.26
2019-04-11T12:12:21.830Z,31.54
2019-04-11T12:13:20.547Z,31.04
2019-04-11T12:14:20.547Z,30.64
2019-04-11T12:15:22.487Z,30.50
2019-04-11T12:16:21.908Z,30.48
2019-04-11T12:17:20.798Z,29.97
2019-04-11T12:18:21.642Z,29.43
2019-04-11T12:19:22.187Z,27.47
2019-04-11T12:20:20.855Z,27.63
2019-04-11T12:21:25.977Z,25.20
2019-04-11T12:22:21.461Z,24.05
2019-04-11T12:23:20.438Z,22.42
2019-04-11T12:24:20.429Z,22.64
2019-04-11T12:25:20.859Z,24.10
2019-04-11T12:26:20.491Z,25.54
2019-04-11T12:27:20.658Z,24.09
2019-04-11T12:28:21.341Z,24.22
2019-04-11T12:29:20.376Z,25.06
2019-04-11T12:30:23.440Z,25.21
2019-04-11T12:31:20.356Z,24.52
2019-04-11T12:32:20.366Z,24.63
2019-04-11T12:33:21.432Z,24.63
2019-04-11T12:34:20.325Z,25.82
2019-04-11T12:35:20.313Z,22.19
2019-04-11T12:36:21.022Z,20.52
2019-04-11T12:37:22.007Z,20.33
2019-04-11T12:38:20.442Z,20.60
2019-04-11T12:39:20.271Z,21.62
2019-04-11T12:40:20.261Z,21.91
2019-04-11T12:41:20.282Z,22.14
2019-04-11T12:42:20.239Z,23.04
2019-04-11T12:43:20.244Z,21.05
2019-04-11T12:44:20.219Z,20.18
2019-04-11T12:45:20.207Z,20.15
2019-04-11T12:46:29.596Z,20.18
2019-04-11T12:47:21.185Z,20.70
2019-04-11T12:48:20.190Z,20.06
2019-04-11T12:49:20.167Z,18.10
2019-04-11T12:50:20.155Z,16.37
2019-04-11T12:51:20.145Z,16.88
2019-04-11T12:52:20.151Z,18.43
2019-04-11T12:53:20.129Z,19.04
2019-04-11T12:54:20.114Z,18.96
2019-04-11T12:55:20.106Z,19.47
2019-04-11T12:56:20.095Z,19.73
2019-04-11T12:57:20.084Z,17.91
2019-04-11T12:58:20.089Z,16.08
2019-04-11T12:59:20.064Z,14.96